Time;durP1;ratioP1;P1;durP2;ratioP2;P2;SDS_P1;SDS_P2;PMS_P1;PMS_P2;Temp;Humidity;BMP_temperature;BMP_pressure;BME280_temperature;BME280_humidity;BME280_pressure;Samples;Min_cycle;Max_cycle;Signal;HPM_P1;HPM_P2
2022/05/31 00:01:29;;;;;;;1.70;1.15;;;;;;;;;;5054642;28;20388;-82
2022/05/31 00:03:55;;;;;;;3.00;1.20;;;;;;;;;;5072338;28;20393;-82
2022/05/31 00:06:21;;;;;;;2.63;1.10;;;;;;;;;;5072382;28;20776;-82
2022/05/31 00:08:47;;;;;;;1.77;1.10;;;;;;;;;;5072293;28;20403;-82
2022/05/31 00:11:14;;;;;;;1.65;1.10;;;;;;;;;;5072221;28;20466;-82
2022/05/31 00:13:40;;;;;;;1.45;1.17;;;;;;;;;;5072192;28;20876;-82
2022/05/31 00:16:06;;;;;;;1.52;1.05;;;;;;;;;;5072273;28;20387;-82
2022/05/31 00:18:32;;;;;;;3.10;1.10;;;;;;;;;;5056432;28;20904;-82
2022/05/31 00:20:58;;;;;;;3.10;1.15;;;;;;;;;;5072135;28;20380;-82
2022/05/31 00:23:25;;;;;;;0.90;0.90;;;;;;;;;;5072419;28;20376;-82
2022/05/31 00:25:51;;;;;;;1.60;1.05;;;;;;;;;;5072044;28;20384;-82
2022/05/31 00:28:17;;;;;;;1.40;1.10;;;;;;;;;;5072141;28;20466;-82
2022/05/31 00:30:43;;;;;;;1.48;1.10;;;;;;;;;;5072047;28;20457;-82
2022/05/31 00:33:10;;;;;;;1.90;1.00;;;;;;;;;;5072018;28;20419;-82
2022/05/31 00:35:39;;;;;;;1.55;1.10;;;;;;;;;;5054101;28;20887;-82
2022/05/31 00:38:06;;;;;;;1.02;0.93;;;;;;;;;;5075018;28;20396;-82
2022/05/31 00:40:33;;;;;;;1.40;1.02;;;;;;;;;;5076154;28;20433;-82
2022/05/31 00:43:01;;;;;;;1.60;0.90;;;;;;;;;;5058837;28;20467;-82
2022/05/31 00:45:30;;;;;;;1.45;1.02;;;;;;;;;;5076096;28;20417;-82
2022/05/31 00:47:56;;;;;;;1.73;1.17;;;;;;;;;;5068643;28;20434;-82
2022/05/31 00:50:29;;;;;;;1.70;1.00;;;;;;;;;;5075934;28;20869;-82
2022/05/31 00:52:57;;;;;;;2.90;1.30;;;;;;;;;;5073961;28;20390;-81
2022/05/31 00:55:26;;;;;;;1.73;1.10;;;;;;;;;;5055220;28;20380;-82
2022/05/31 00:58:00;;;;;;;1.15;0.90;;;;;;;;;;5055684;28;20455;-82
2022/05/31 01:00:27;;;;;;;2.27;1.20;;;;;;;;;;5074903;28;20441;-81
2022/05/31 01:02:53;;;;;;;3.17;1.23;;;;;;;;;;5075661;28;20849;-82
2022/05/31 01:05:19;;;;;;;1.50;1.10;;;;;;;;;;5075914;28;20376;-81
2022/05/31 01:07:46;;;;;;;2.70;1.30;;;;;;;;;;5075627;28;20477;-81
2022/05/31 01:10:13;;;;;;;1.42;1.05;;;;;;;;;;5069272;28;20434;-81
2022/05/31 01:12:42;;;;;;;1.52;1.30;;;;;;;;;;5075700;28;20483;-81
2022/05/31 01:15:08;;;;;;;1.90;1.30;;;;;;;;;;5075484;28;20459;-82
2022/05/31 01:17:34;;;;;;;1.33;1.02;;;;;;;;;;5075333;28;20415;-81
2022/05/31 01:20:07;;;;;;;2.70;1.13;;;;;;;;;;5075397;28;20538;-81
2022/05/31 01:22:39;;;;;;;1.38;1.10;;;;;;;;;;5075208;28;20379;-81
2022/05/31 01:25:05;;;;;;;2.13;1.27;;;;;;;;;;5075365;28;20929;-81
2022/05/31 01:27:31;;;;;;;1.80;1.10;;;;;;;;;;5075188;28;20384;-81
2022/05/31 01:29:59;;;;;;;2.38;1.30;;;;;;;;;;5075380;28;20740;-81
2022/05/31 01:32:25;;;;;;;1.30;1.10;;;;;;;;;;5074999;28;20382;-81
2022/05/31 01:35:12;;;;;;;2.10;1.20;;;;;;;;;;5075163;28;20380;-81
2022/05/31 01:37:59;;;;;;;2.75;1.08;;;;;;;;;;5067836;28;20466;-81
2022/05/31 01:40:29;;;;;;;2.05;1.20;;;;;;;;;;5049553;28;20399;-81
2022/05/31 01:42:56;;;;;;;1.20;1.10;;;;;;;;;;5052676;28;20375;-82
2022/05/31 01:45:29;;;;;;;1.65;1.20;;;;;;;;;;5073322;28;20406;-82
2022/05/31 01:47:57;;;;;;;2.20;1.15;;;;;;;;;;5071300;28;20860;-81
2022/05/31 01:50:23;;;;;;;1.55;1.00;;;;;;;;;;5049319;28;20390;-81
2022/05/31 01:52:50;;;;;;;1.30;1.20;;;;;;;;;;5058067;28;20442;-82
2022/05/31 01:55:16;;;;;;;1.98;1.05;;;;;;;;;;5047961;28;20390;-82
2022/05/31 01:57:43;;;;;;;1.38;1.13;;;;;;;;;;5053977;28;20412;-82
2022/05/31 02:00:11;;;;;;;4.03;1.20;;;;;;;;;;5043175;28;20478;-82
2022/05/31 02:02:37;;;;;;;2.13;1.20;;;;;;;;;;5035940;28;20856;-82
2022/05/31 02:05:03;;;;;;;3.30;1.05;;;;;;;;;;5037552;28;20387;-82
2022/05/31 02:07:30;;;;;;;1.55;1.10;;;;;;;;;;5072561;28;20384;-82
2022/05/31 02:09:57;;;;;;;3.00;1.23;;;;;;;;;;5072500;28;20384;-82
2022/05/31 02:12:24;;;;;;;1.35;1.00;;;;;;;;;;5072242;28;20483;-82
2022/05/31 02:14:50;;;;;;;1.17;1.08;;;;;;;;;;5064855;28;20429;-82
2022/05/31 02:17:16;;;;;;;1.25;1.15;;;;;;;;;;5055814;28;20434;-82
2022/05/31 02:19:43;;;;;;;2.10;1.13;;;;;;;;;;5072492;28;20379;-82
2022/05/31 02:22:10;;;;;;;1.50;1.10;;;;;;;;;;5073378;28;20463;-82
2022/05/31 02:24:37;;;;;;;1.50;1.10;;;;;;;;;;5074419;28;20383;-82
2022/05/31 02:27:04;;;;;;;1.30;1.15;;;;;;;;;;5074125;28;20415;-82
2022/05/31 02:29:31;;;;;;;1.45;1.10;;;;;;;;;;5074317;28;20376;-82
2022/05/31 02:31:58;;;;;;;1.67;1.07;;;;;;;;;;5074011;28;20530;-82
2022/05/31 02:34:25;;;;;;;1.10;1.00;;;;;;;;;;5073935;28;20458;-82
2022/05/31 02:36:51;;;;;;;1.10;1.00;;;;;;;;;;5073948;28;20753;-82
2022/05/31 02:39:17;;;;;;;1.70;1.10;;;;;;;;;;5073807;28;20404;-82
2022/05/31 02:41:43;;;;;;;2.28;1.30;;;;;;;;;;5067036;28;20441;-82
2022/05/31 02:44:10;;;;;;;1.30;1.00;;;;;;;;;;5063784;28;20464;-82
2022/05/31 02:46:36;;;;;;;2.05;0.90;;;;;;;;;;5073783;28;20411;-82
2022/05/31 02:49:04;;;;;;;1.70;1.30;;;;;;;;;;5073648;28;20430;-82
2022/05/31 02:51:33;;;;;;;1.02;0.93;;;;;;;;;;5060634;28;20425;-82
2022/05/31 02:53:59;;;;;;;1.40;1.23;;;;;;;;;;5073681;28;20877;-82
2022/05/31 02:56:25;;;;;;;1.80;1.30;;;;;;;;;;5073559;28;20410;-82
2022/05/31 02:58:51;;;;;;;1.60;1.20;;;;;;;;;;5073189;28;20419;-82
2022/05/31 03:01:19;;;;;;;1.95;1.30;;;;;;;;;;5073334;28;20471;-82
2022/05/31 03:03:45;;;;;;;2.83;1.13;;;;;;;;;;5061126;28;20386;-82
2022/05/31 03:06:11;;;;;;;1.48;1.27;;;;;;;;;;5046192;28;20463;-82
2022/05/31 03:08:37;;;;;;;1.40;1.30;;;;;;;;;;5073260;28;20876;-82
2022/05/31 03:11:04;;;;;;;2.15;1.20;;;;;;;;;;5073365;28;20407;-82
2022/05/31 03:13:30;;;;;;;1.50;1.10;;;;;;;;;;5073130;28;20383;-82
2022/05/31 03:15:59;;;;;;;3.47;3.17;;;;;;;;;;5073427;28;20448;-82
2022/05/31 03:18:27;;;;;;;1.40;1.30;;;;;;;;;;5073012;28;20404;-82
2022/05/31 03:20:54;;;;;;;1.35;1.25;;;;;;;;;;5073034;28;20387;-82
2022/05/31 03:23:30;;;;;;;2.05;1.13;;;;;;;;;;5073260;28;20398;-82
2022/05/31 03:25:59;;;;;;;1.27;1.10;;;;;;;;;;5055279;28;20388;-82
2022/05/31 03:28:26;;;;;;;3.17;1.40;;;;;;;;;;5072915;28;20448;-82
2022/05/31 03:30:52;;;;;;;2.50;1.40;;;;;;;;;;5054973;28;20384;-82
2022/05/31 03:33:18;;;;;;;1.48;1.17;;;;;;;;;;5072845;28;20453;-82
2022/05/31 03:35:44;;;;;;;1.95;1.15;;;;;;;;;;5073031;28;20387;-82
2022/05/31 03:38:10;;;;;;;2.10;1.20;;;;;;;;;;5071794;28;20403;-82
2022/05/31 03:43:21;;;;;;;1.33;1.20;;;;;;;;;;5041057;28;20462;-82
2022/05/31 03:45:47;;;;;;;1.50;1.38;;;;;;;;;;5065930;28;20828;-82
2022/05/31 03:48:13;;;;;;;1.90;1.30;;;;;;;;;;5072625;28;20449;-82
2022/05/31 03:50:39;;;;;;;1.90;1.10;;;;;;;;;;5072714;28;20387;-82
2022/05/31 03:53:09;;;;;;;1.65;1.30;;;;;;;;;;5071886;28;20384;-82
2022/05/31 03:55:39;;;;;;;1.30;1.10;;;;;;;;;;5055234;28;20390;-82
2022/05/31 03:58:05;;;;;;;1.48;1.30;;;;;;;;;;5049878;28;20413;-82
2022/05/31 04:00:32;;;;;;;1.73;1.10;;;;;;;;;;5072221;28;20398;-82
2022/05/31 04:02:58;;;;;;;1.83;1.25;;;;;;;;;;5072396;28;20381;-82
2022/05/31 04:05:24;;;;;;;1.40;1.10;;;;;;;;;;5072320;28;20380;-82
2022/05/31 04:07:51;;;;;;;1.65;1.10;;;;;;;;;;5072471;28;20422;-82
2022/05/31 04:10:17;;;;;;;1.80;1.23;;;;;;;;;;5072268;28;20383;-82
2022/05/31 04:12:43;;;;;;;2.40;1.40;;;;;;;;;;5071700;28;20392;-82
2022/05/31 04:15:09;;;;;;;1.45;1.10;;;;;;;;;;5072207;28;20466;-82
2022/05/31 04:17:35;;;;;;;1.77;1.23;;;;;;;;;;5047474;28;20495;-82
2022/05/31 04:20:01;;;;;;;1.77;1.27;;;;;;;;;;5044443;28;20922;-82
2022/05/31 04:22:27;;;;;;;1.50;1.10;;;;;;;;;;5056345;28;20418;-82
2022/05/31 04:24:57;;;;;;;1.45;1.17;;;;;;;;;;5045412;28;20527;-81
2022/05/31 04:27:23;;;;;;;1.40;1.27;;;;;;;;;;5056117;28;20445;-82
2022/05/31 04:29:49;;;;;;;1.63;1.23;;;;;;;;;;5050258;28;20388;-81
2022/05/31 04:32:15;;;;;;;1.50;1.15;;;;;;;;;;5065285;28;20914;-82
2022/05/31 04:34:42;;;;;;;1.80;1.37;;;;;;;;;;5072155;28;20430;-81
2022/05/31 04:37:09;;;;;;;2.30;1.52;;;;;;;;;;5071951;28;20733;-81
2022/05/31 04:39:35;;;;;;;1.80;1.45;;;;;;;;;;5072005;28;20382;-81
2022/05/31 04:42:01;;;;;;;1.67;1.58;;;;;;;;;;5060436;28;20509;-81
2022/05/31 04:44:27;;;;;;;1.95;1.52;;;;;;;;;;5064546;28;20781;-81
2022/05/31 04:46:53;;;;;;;2.80;1.40;;;;;;;;;;5051793;28;20381;-82
2022/05/31 04:49:19;;;;;;;2.38;1.42;;;;;;;;;;5049305;28;20390;-83
2022/05/31 04:51:45;;;;;;;2.50;1.35;;;;;;;;;;5051445;28;20389;-81
2022/05/31 04:54:12;;;;;;;2.00;1.60;;;;;;;;;;5064179;28;20386;-81
2022/05/31 04:56:38;;;;;;;2.28;1.42;;;;;;;;;;5060114;28;20461;-83
2022/05/31 04:59:04;;;;;;;2.40;1.40;;;;;;;;;;5041760;28;20410;-83
2022/05/31 05:01:30;;;;;;;1.90;1.38;;;;;;;;;;5040174;28;20378;-82
2022/05/31 05:03:56;;;;;;;2.87;1.37;;;;;;;;;;5027943;28;20466;-82
2022/05/31 05:06:22;;;;;;;3.45;1.48;;;;;;;;;;5032767;28;20860;-83
2022/05/31 05:08:49;;;;;;;2.80;1.50;;;;;;;;;;5068561;28;20380;-83
2022/05/31 05:11:17;;;;;;;1.77;1.45;;;;;;;;;;5035483;28;20444;-83
2022/05/31 05:13:43;;;;;;;1.90;1.17;;;;;;;;;;5042389;28;20397;-83
2022/05/31 05:16:10;;;;;;;1.70;1.47;;;;;;;;;;5036822;28;20385;-84
2022/05/31 05:18:36;;;;;;;3.00;1.13;;;;;;;;;;5024956;28;20837;-84
2022/05/31 05:21:04;;;;;;;2.70;1.50;;;;;;;;;;5053560;28;20372;-84
2022/05/31 05:23:30;;;;;;;2.25;1.33;;;;;;;;;;5073441;28;20375;-84
2022/05/31 05:25:57;;;;;;;2.97;1.40;;;;;;;;;;5073873;28;20449;-83
2022/05/31 05:31:17;;;;;;;1.65;1.52;;;;;;;;;;5073925;28;20538;-83
2022/05/31 05:33:43;;;;;;;2.92;1.27;;;;;;;;;;5075020;28;20388;-84
2022/05/31 05:36:09;;;;;;;2.13;1.60;;;;;;;;;;5075088;28;20383;-83
2022/05/31 05:38:35;;;;;;;2.33;1.77;;;;;;;;;;5063715;28;20467;-83
2022/05/31 05:41:02;;;;;;;2.65;1.70;;;;;;;;;;5058821;28;20383;-83
2022/05/31 05:43:28;;;;;;;1.60;1.48;;;;;;;;;;5042639;28;20387;-83
2022/05/31 05:45:54;;;;;;;2.40;1.47;;;;;;;;;;5065698;28;20375;-82
2022/05/31 05:48:20;;;;;;;3.28;1.88;;;;;;;;;;5056572;28;20398;-83
2022/05/31 05:50:46;;;;;;;2.53;1.50;;;;;;;;;;5034959;28;20871;-83
2022/05/31 05:53:12;;;;;;;1.88;1.60;;;;;;;;;;5073744;28;20472;-83
2022/05/31 05:55:39;;;;;;;1.85;1.30;;;;;;;;;;5074655;28;20849;-83
2022/05/31 05:58:08;;;;;;;2.10;1.40;;;;;;;;;;5073672;28;20480;-83
2022/05/31 06:00:34;;;;;;;1.95;1.23;;;;;;;;;;5074608;28;20392;-83
2022/05/31 06:03:20;;;;;;;1.80;1.70;;;;;;;;;;5074595;28;20464;-83
2022/05/31 06:05:47;;;;;;;1.52;1.42;;;;;;;;;;5058087;28;20387;-81
2022/05/31 06:08:20;;;;;;;1.60;1.40;;;;;;;;;;5074565;28;20379;-82
2022/05/31 06:10:58;;;;;;;2.50;1.42;;;;;;;;;;5068080;28;20491;-82
2022/05/31 06:13:26;;;;;;;3.20;1.67;;;;;;;;;;5049485;28;20752;-81
2022/05/31 06:15:55;;;;;;;2.33;1.40;;;;;;;;;;5074841;28;20406;-81
2022/05/31 06:18:23;;;;;;;1.50;1.40;;;;;;;;;;5057035;28;20441;-81
2022/05/31 06:20:51;;;;;;;1.90;1.40;;;;;;;;;;5058800;28;20463;-81
2022/05/31 06:23:17;;;;;;;2.55;1.60;;;;;;;;;;5062977;28;20434;-81
2022/05/31 06:25:43;;;;;;;1.40;1.30;;;;;;;;;;5055264;28;20734;-81
2022/05/31 06:28:09;;;;;;;2.27;1.60;;;;;;;;;;5063902;28;20375;-81
2022/05/31 06:30:37;;;;;;;1.70;1.60;;;;;;;;;;5073032;28;20416;-81
2022/05/31 06:33:04;;;;;;;2.10;1.30;;;;;;;;;;5073995;28;20390;-81
2022/05/31 06:35:30;;;;;;;2.60;1.60;;;;;;;;;;5073257;28;20845;-81
2022/05/31 06:37:56;;;;;;;2.25;1.60;;;;;;;;;;5036141;28;20999;-81
2022/05/31 06:40:22;;;;;;;1.75;1.52;;;;;;;;;;5057454;28;20372;-81
2022/05/31 06:42:48;;;;;;;1.85;1.40;;;;;;;;;;5059419;28;20426;-81
2022/05/31 06:45:14;;;;;;;1.88;1.40;;;;;;;;;;5050394;28;20378;-81
2022/05/31 06:47:40;;;;;;;1.60;1.50;;;;;;;;;;5069505;28;20454;-81
2022/05/31 06:50:06;;;;;;;2.00;1.60;;;;;;;;;;5066112;28;20873;-81
2022/05/31 06:58:02;;;;;;;2.70;1.80;;;;;;;;;;5071973;28;20411;-82
2022/05/31 07:00:28;;;;;;;2.15;1.90;;;;;;;;;;5062233;28;20394;-82
2022/05/31 07:02:55;;;;;;;2.10;1.83;;;;;;;;;;5046562;28;20449;-82
2022/05/31 07:05:22;;;;;;;1.75;1.50;;;;;;;;;;5073660;28;20865;-82
2022/05/31 07:07:48;;;;;;;3.10;2.00;;;;;;;;;;5073363;28;20420;-82
2022/05/31 07:10:14;;;;;;;3.60;2.27;;;;;;;;;;5073325;28;20477;-82
2022/05/31 07:12:41;;;;;;;4.85;3.58;;;;;;;;;;5064355;28;20382;-83
2022/05/31 07:15:08;;;;;;;5.75;4.68;;;;;;;;;;5067064;28;20383;-82
2022/05/31 07:17:35;;;;;;;5.60;3.53;;;;;;;;;;5072976;28;20407;-83
2022/05/31 07:20:01;;;;;;;5.28;3.80;;;;;;;;;;5055393;28;20430;-83
2022/05/31 07:22:28;;;;;;;5.18;3.97;;;;;;;;;;5072828;28;20433;-83
2022/05/31 07:24:54;;;;;;;5.97;4.70;;;;;;;;;;5072998;28;20386;-83
2022/05/31 07:27:20;;;;;;;6.78;4.78;;;;;;;;;;5054929;28;20384;-83
2022/05/31 07:29:46;;;;;;;8.00;5.32;;;;;;;;;;5072854;28;20379;-83
2022/05/31 07:32:12;;;;;;;7.13;5.20;;;;;;;;;;5072636;28;20429;-83
2022/05/31 07:34:38;;;;;;;7.28;5.38;;;;;;;;;;5072757;28;20380;-83
2022/05/31 07:37:04;;;;;;;5.88;5.20;;;;;;;;;;5056422;28;20392;-84
2022/05/31 07:39:30;;;;;;;6.67;4.67;;;;;;;;;;5053272;28;20384;-83
2022/05/31 07:41:56;;;;;;;6.18;4.30;;;;;;;;;;5062212;28;20387;-83
2022/05/31 07:44:25;;;;;;;8.20;4.60;;;;;;;;;;5066128;28;20849;-82
2022/05/31 07:46:51;;;;;;;5.07;3.87;;;;;;;;;;5063698;28;20731;-83
2022/05/31 07:49:17;;;;;;;8.23;5.70;;;;;;;;;;5067658;28;20475;-84
2022/05/31 07:51:44;;;;;;;8.25;6.40;;;;;;;;;;5072378;28;20390;-84
2022/05/31 07:54:09;;;;;;;12.50;6.80;;;;;;;;;;5063881;28;20422;-85
2022/05/31 07:56:35;;;;;;;9.93;7.05;;;;;;;;;;5046626;28;20481;-85
2022/05/31 07:59:01;;;;;;;8.73;6.57;;;;;;;;;;5037907;28;20776;-84
2022/05/31 08:01:27;;;;;;;10.80;7.13;;;;;;;;;;5041686;28;20387;-85
2022/05/31 08:03:54;;;;;;;10.80;7.35;;;;;;;;;;5072248;28;20372;-85
2022/05/31 08:06:21;;;;;;;12.97;4.47;;;;;;;;;;5063955;28;20377;-85
2022/05/31 08:08:48;;;;;;;7.03;4.07;;;;;;;;;;5069680;28;20424;-85
2022/05/31 08:11:15;;;;;;;10.35;3.45;;;;;;;;;;5072292;28;20384;-86
2022/05/31 08:13:41;;;;;;;5.00;3.17;;;;;;;;;;5072289;28;20387;-83
2022/05/31 08:16:08;;;;;;;5.35;3.15;;;;;;;;;;5052185;28;20464;-84
2022/05/31 08:18:35;;;;;;;5.60;2.80;;;;;;;;;;5066375;28;20823;-84
2022/05/31 08:21:03;;;;;;;4.40;3.00;;;;;;;;;;5071822;28;20875;-85
2022/05/31 08:23:29;;;;;;;5.50;3.15;;;;;;;;;;5071889;28;20433;-85
2022/05/31 08:25:55;;;;;;;5.07;2.85;;;;;;;;;;5071703;28;20414;-85
2022/05/31 08:28:22;;;;;;;3.23;2.53;;;;;;;;;;5054242;28;20936;-85
2022/05/31 08:30:49;;;;;;;4.13;2.42;;;;;;;;;;5069143;28;20404;-85
2022/05/31 08:33:15;;;;;;;4.30;2.38;;;;;;;;;;5061143;28;20879;-86
2022/05/31 08:35:41;;;;;;;3.47;1.90;;;;;;;;;;5071993;28;20388;-86
2022/05/31 08:38:07;;;;;;;3.00;1.88;;;;;;;;;;5071994;28;20411;-86
2022/05/31 08:40:38;;;;;;;3.60;1.70;;;;;;;;;;5072046;28;20442;-85
2022/05/31 08:43:06;;;;;;;3.30;2.00;;;;;;;;;;5059843;28;20573;-84
2022/05/31 08:45:45;;;;;;;4.30;2.10;;;;;;;;;;5053439;28;20413;-85
2022/05/31 08:48:24;;;;;;;3.30;2.10;;;;;;;;;;5058151;28;20379;-85
2022/05/31 08:56:56;;;;;;;4.00;2.15;;;;;;;;;;5071985;28;20737;-86
2022/05/31 08:59:28;;;;;;;7.78;1.90;;;;;;;;;;5074942;28;20971;-85
2022/05/31 09:01:57;;;;;;;9.02;2.40;;;;;;;;;;5075663;28;20411;-84
2022/05/31 09:04:44;;;;;;;4.07;1.88;;;;;;;;;;5058009;28;20376;-85
2022/05/31 09:07:20;;;;;;;2.80;1.88;;;;;;;;;;5075598;28;20402;-86
2022/05/31 09:09:51;;;;;;;4.27;2.00;;;;;;;;;;5075605;28;20368;-85
2022/05/31 09:12:29;;;;;;;3.13;1.67;;;;;;;;;;5075440;28;20417;-86
2022/05/31 09:15:23;;;;;;;6.25;1.67;;;;;;;;;;5060550;28;20400;-86
2022/05/31 09:18:07;;;;;;;18.48;2.30;;;;;;;;;;5048025;28;20407;-86
2022/05/31 09:20:33;;;;;;;8.13;2.07;;;;;;;;;;5022451;28;20748;-86
2022/05/31 09:22:59;;;;;;;13.57;2.10;;;;;;;;;;5057387;28;20430;-85
2022/05/31 09:25:26;;;;;;;27.83;3.03;;;;;;;;;;5076135;28;20474;-87
2022/05/31 09:27:53;;;;;;;4.17;1.60;;;;;;;;;;5075262;28;20445;-87
2022/05/31 09:30:45;;;;;;;4.80;1.63;;;;;;;;;;5075269;28;20371;-86
2022/05/31 09:33:17;;;;;;;7.82;1.90;;;;;;;;;;5070566;28;20388;-87
2022/05/31 09:35:59;;;;;;;3.85;1.98;;;;;;;;;;5074998;28;20391;-86
2022/05/31 09:38:24;;;;;;;14.98;2.70;;;;;;;;;;5074916;28;20408;-87
2022/05/31 09:40:52;;;;;;;8.73;3.78;;;;;;;;;;5074972;28;20960;-87
2022/05/31 09:43:31;;;;;;;19.85;2.75;;;;;;;;;;5057550;28;20467;-86
2022/05/31 09:46:03;;;;;;;4.82;1.25;;;;;;;;;;5074812;28;20383;-87
2022/05/31 09:48:29;;;;;;;4.00;1.27;;;;;;;;;;5075134;28;20733;-88
2022/05/31 09:51:08;;;;;;;2.40;1.50;;;;;;;;;;5075266;28;20379;-87
2022/05/31 09:59:13;;;;;;;3.80;1.50;;;;;;;;;;5072671;28;20415;-87
2022/05/31 10:01:46;;;;;;;3.67;1.30;;;;;;;;;;5073851;28;20408;-87
2022/05/31 10:04:14;;;;;;;2.33;1.30;;;;;;;;;;5074828;28;20368;-88
2022/05/31 10:06:55;;;;;;;2.28;1.40;;;;;;;;;;5074189;28;20489;-87
2022/05/31 10:09:24;;;;;;;3.63;1.88;;;;;;;;;;5061983;28;20420;-87
2022/05/31 10:12:03;;;;;;;4.10;2.60;;;;;;;;;;5056358;28;20379;-88
2022/05/31 10:14:34;;;;;;;7.40;4.70;;;;;;;;;;5074543;28;20410;-87
2022/05/31 10:17:18;;;;;;;3.03;2.08;;;;;;;;;;5070121;28;20377;-87
2022/05/31 10:19:44;;;;;;;3.30;1.80;;;;;;;;;;5064367;28;20482;-87
2022/05/31 10:22:18;;;;;;;2.78;1.80;;;;;;;;;;5074176;28;20904;-87
2022/05/31 10:24:44;;;;;;;2.80;1.65;;;;;;;;;;5074329;28;20391;-88
2022/05/31 10:27:12;;;;;;;4.10;1.90;;;;;;;;;;5074560;28;20407;-88
2022/05/31 10:29:46;;;;;;;12.70;5.22;;;;;;;;;;5074117;28;20383;-87
2022/05/31 10:32:27;;;;;;;10.27;5.50;;;;;;;;;;5074016;28;20401;-87
2022/05/31 10:35:08;;;;;;;7.40;3.55;;;;;;;;;;5073957;28;20865;-87
2022/05/31 10:37:35;;;;;;;2.55;1.33;;;;;;;;;;5073883;28;20491;-87
2022/05/31 10:40:01;;;;;;;1.77;1.35;;;;;;;;;;5064897;28;20382;-86
2022/05/31 10:42:27;;;;;;;4.40;1.30;;;;;;;;;;5055648;28;20370;-88
2022/05/31 10:44:55;;;;;;;3.97;1.30;;;;;;;;;;5073978;28;20411;-87
2022/05/31 10:47:24;;;;;;;1.70;1.10;;;;;;;;;;5052800;28;20380;-87
2022/05/31 10:49:51;;;;;;;3.08;1.40;;;;;;;;;;5073793;28;20376;-87
2022/05/31 10:52:17;;;;;;;3.33;1.60;;;;;;;;;;5061932;28;20738;-87
2022/05/31 10:54:48;;;;;;;2.70;1.23;;;;;;;;;;5071779;28;20387;-87
2022/05/31 10:57:22;;;;;;;3.30;1.30;;;;;;;;;;5073764;28;20371;-87
2022/05/31 11:00:00;;;;;;;2.72;1.35;;;;;;;;;;5070715;28;20745;-87
2022/05/31 11:02:43;;;;;;;2.42;1.08;;;;;;;;;;5061248;28;20455;-86
2022/05/31 11:05:13;;;;;;;2.80;1.40;;;;;;;;;;5073324;28;20414;-84
2022/05/31 11:07:39;;;;;;;3.80;1.45;;;;;;;;;;5073709;28;20861;-84
2022/05/31 11:13:20;;;;;;;4.95;1.35;;;;;;;;;;5063712;28;20380;-86
2022/05/31 11:15:46;;;;;;;3.13;1.13;;;;;;;;;;5070488;28;20438;-86
2022/05/31 11:18:18;;;;;;;3.35;1.25;;;;;;;;;;5050191;28;20467;-86
2022/05/31 11:20:57;;;;;;;3.95;1.30;;;;;;;;;;5071295;28;20403;-85
2022/05/31 11:24:02;;;;;;;4.55;1.48;;;;;;;;;;5055386;28;20380;-87
2022/05/31 11:26:40;;;;;;;4.55;1.40;;;;;;;;;;4956172;28;20894;-86
2022/05/31 11:29:14;;;;;;;2.38;1.35;;;;;;;;;;4955258;28;20398;-86
2022/05/31 11:31:53;;;;;;;4.57;1.33;;;;;;;;;;5022259;28;20932;-86
2022/05/31 11:34:25;;;;;;;3.03;1.30;;;;;;;;;;5047929;28;20383;-86
2022/05/31 11:37:03;;;;;;;2.60;1.17;;;;;;;;;;5073041;28;20733;-86
2022/05/31 11:39:47;;;;;;;2.72;1.17;;;;;;;;;;5054867;28;20403;-86
2022/05/31 11:42:32;;;;;;;4.03;1.33;;;;;;;;;;5065401;28;20855;-87
2022/05/31 11:44:58;;;;;;;5.55;1.50;;;;;;;;;;5060326;28;20465;-86
2022/05/31 11:47:32;;;;;;;3.07;1.30;;;;;;;;;;5066715;28;20425;-86
2022/05/31 11:50:05;;;;;;;2.67;1.33;;;;;;;;;;5041749;28;20377;-87
2022/05/31 11:52:34;;;;;;;4.00;1.43;;;;;;;;;;5034371;28;20977;-87
2022/05/31 11:57:45;;;;;;;3.00;1.30;;;;;;;;;;5042194;28;20409;-86
2022/05/31 12:00:12;;;;;;;2.22;1.30;;;;;;;;;;5068966;28;20565;-86
2022/05/31 12:02:45;;;;;;;4.53;1.40;;;;;;;;;;5059900;28;20931;-85
2022/05/31 12:05:11;;;;;;;2.47;1.40;;;;;;;;;;5056208;28;20873;-87
2022/05/31 12:07:57;;;;;;;2.15;1.30;;;;;;;;;;5060386;28;20384;-86
2022/05/31 12:10:28;;;;;;;4.63;1.40;;;;;;;;;;5072098;28;20386;-86
2022/05/31 12:12:56;;;;;;;1.93;1.20;;;;;;;;;;5067742;28;20474;-87
2022/05/31 12:15:28;;;;;;;3.13;1.40;;;;;;;;;;5055599;28;20422;-87
2022/05/31 12:17:54;;;;;;;3.53;1.50;;;;;;;;;;5061048;28;20407;-86
2022/05/31 12:20:47;;;;;;;1.98;1.33;;;;;;;;;;5055017;28;20396;-86
2022/05/31 12:23:22;;;;;;;2.30;1.42;;;;;;;;;;5043748;28;20390;-86
2022/05/31 12:25:50;;;;;;;2.85;1.35;;;;;;;;;;5051678;28;20384;-88
2022/05/31 12:28:22;;;;;;;2.33;1.30;;;;;;;;;;5024616;28;20385;-86
2022/05/31 12:30:55;;;;;;;2.17;1.00;;;;;;;;;;5051736;28;20388;-85
2022/05/31 12:34:03;;;;;;;1.83;1.10;;;;;;;;;;5046952;28;20389;-85
2022/05/31 12:36:23;;;;;;;1.15;0.70;;;;;;;;;;5039780;28;20911;-85
2022/05/31 12:39:08;;;;;;;1.70;0.73;;;;;;;;;;5048106;28;20411;-86
2022/05/31 12:41:42;;;;;;;1.92;0.80;;;;;;;;;;5014795;28;20423;-86
2022/05/31 12:44:29;;;;;;;1.48;0.70;;;;;;;;;;5032090;28;20774;-85
2022/05/31 12:46:55;;;;;;;1.40;0.80;;;;;;;;;;5038897;28;20433;-85
2022/05/31 12:49:26;;;;;;;1.98;0.90;;;;;;;;;;5062333;28;20388;-84
2022/05/31 12:52:24;;;;;;;1.95;0.90;;;;;;;;;;5037872;28;20406;-87
2022/05/31 12:54:51;;;;;;;2.08;0.73;;;;;;;;;;5069847;28;20397;-86
2022/05/31 12:57:19;;;;;;;3.30;0.93;;;;;;;;;;5060749;28;20385;-85
2022/05/31 12:59:47;;;;;;;1.17;0.90;;;;;;;;;;5049835;28;20386;-86
2022/05/31 13:02:31;;;;;;;2.28;1.10;;;;;;;;;;5034590;28;20441;-85
2022/05/31 13:05:05;;;;;;;2.65;1.08;;;;;;;;;;5035550;28;20867;-85
2022/05/31 13:07:47;;;;;;;2.65;0.90;;;;;;;;;;5034163;28;20387;-85
2022/05/31 13:10:32;;;;;;;2.55;0.90;;;;;;;;;;5048155;28;20377;-86
2022/05/31 13:21:18;;;;;;;3.35;1.10;;;;;;;;;;5044019;28;20379;-85
2022/05/31 13:23:46;;;;;;;1.33;1.00;;;;;;;;;;5035800;28;20380;-85
2022/05/31 13:26:18;;;;;;;2.33;1.10;;;;;;;;;;5045327;28;20391;-84
2022/05/31 13:28:56;;;;;;;2.50;1.40;;;;;;;;;;5049236;28;20385;-84
2022/05/31 13:31:24;;;;;;;3.00;1.10;;;;;;;;;;5042389;28;20379;-84
2022/05/31 13:34:00;;;;;;;2.95;0.95;;;;;;;;;;5031915;28;20475;-85
2022/05/31 13:36:28;;;;;;;3.43;0.93;;;;;;;;;;5014685;28;20399;-85
2022/05/31 13:39:04;;;;;;;2.78;0.90;;;;;;;;;;5031882;28;20411;-85
2022/05/31 13:41:31;;;;;;;1.75;0.93;;;;;;;;;;5025006;28;20450;-85
2022/05/31 13:43:59;;;;;;;4.45;1.15;;;;;;;;;;5059173;28;20376;-84
2022/05/31 13:46:35;;;;;;;6.30;1.00;;;;;;;;;;5033826;28;20866;-85
2022/05/31 13:49:05;;;;;;;1.77;0.90;;;;;;;;;;5068132;28;20387;-86
2022/05/31 13:51:32;;;;;;;3.15;1.10;;;;;;;;;;5075215;28;20387;-86
2022/05/31 13:54:11;;;;;;;3.72;1.05;;;;;;;;;;5074947;28;20387;-84
2022/05/31 13:56:37;;;;;;;2.70;1.57;;;;;;;;;;5074929;28;20404;-85
2022/05/31 13:59:03;;;;;;;3.22;1.50;;;;;;;;;;5066636;28;20508;-85
2022/05/31 14:01:36;;;;;;;7.75;1.30;;;;;;;;;;5038671;28;20803;-85
2022/05/31 14:04:21;;;;;;;3.20;1.05;;;;;;;;;;5044854;28;20390;-85
2022/05/31 14:06:48;;;;;;;4.53;1.30;;;;;;;;;;5042446;28;20377;-84
2022/05/31 14:09:16;;;;;;;2.07;0.93;;;;;;;;;;5037674;28;20385;-84
2022/05/31 14:11:49;;;;;;;4.45;1.40;;;;;;;;;;5037899;28;20501;-84
2022/05/31 14:14:17;;;;;;;2.10;0.95;;;;;;;;;;5028219;28;20428;-85
2022/05/31 14:16:44;;;;;;;2.90;1.20;;;;;;;;;;5053404;28;20386;-85
2022/05/31 14:19:16;;;;;;;2.50;1.05;;;;;;;;;;5024577;28;20493;-85
2022/05/31 14:21:43;;;;;;;2.10;1.08;;;;;;;;;;5045859;28;20467;-86
2022/05/31 14:24:10;;;;;;;2.67;1.10;;;;;;;;;;5058546;28;20383;-86
2022/05/31 14:26:36;;;;;;;2.40;1.27;;;;;;;;;;5074495;28;20891;-85
2022/05/31 14:29:21;;;;;;;2.60;1.60;;;;;;;;;;5074241;28;20376;-85
2022/05/31 14:31:50;;;;;;;2.67;1.13;;;;;;;;;;5074135;28;20830;-84
2022/05/31 14:34:19;;;;;;;1.98;1.20;;;;;;;;;;5074081;28;20383;-85
2022/05/31 14:36:47;;;;;;;3.03;0.98;;;;;;;;;;5074063;28;20853;-84
2022/05/31 14:39:17;;;;;;;2.40;0.98;;;;;;;;;;5073917;28;20408;-84
2022/05/31 14:41:44;;;;;;;2.60;1.15;;;;;;;;;;5050410;28;20754;-84
2022/05/31 14:44:46;;;;;;;2.25;1.10;;;;;;;;;;5069034;28;20408;-84
2022/05/31 14:47:21;;;;;;;1.75;1.08;;;;;;;;;;4971074;28;20402;-85
2022/05/31 14:50:05;;;;;;;3.40;1.13;;;;;;;;;;5060276;28;20386;-84
2022/05/31 14:52:47;;;;;;;2.20;1.17;;;;;;;;;;5073734;28;20367;-85
2022/05/31 14:55:22;;;;;;;2.17;1.08;;;;;;;;;;5043292;28;20491;-85
2022/05/31 15:00:54;;;;;;;3.42;1.10;;;;;;;;;;5045727;28;20374;-84
2022/05/31 15:03:22;;;;;;;2.03;0.85;;;;;;;;;;5046913;28;20440;-84
2022/05/31 15:05:55;;;;;;;2.72;1.10;;;;;;;;;;5051480;28;20381;-84
2022/05/31 15:08:28;;;;;;;2.13;0.90;;;;;;;;;;5043799;28;20381;-85
2022/05/31 15:18:56;;;;;;;3.20;0.85;;;;;;;;;;5038138;28;20446;-84
2022/05/31 15:19:11;;;;;;;2.53;1.10;;;;;;;;;;5037606;28;20414;-84
2022/05/31 15:21:39;;;;;;;1.97;1.00;;;;;;;;;;5042273;28;20387;-84
2022/05/31 15:24:28;;;;;;;7.10;2.40;;;;;;;;;;5036756;28;20385;-86
2022/05/31 15:26:54;;;;;;;2.33;1.15;;;;;;;;;;5014082;28;20387;-84
2022/05/31 15:29:20;;;;;;;3.58;1.35;;;;;;;;;;5041261;28;20891;-86
2022/05/31 15:31:47;;;;;;;1.67;0.93;;;;;;;;;;5039500;28;20876;-84
2022/05/31 15:34:13;;;;;;;2.78;0.98;;;;;;;;;;5042045;28;20791;-84
2022/05/31 15:36:42;;;;;;;2.05;1.00;;;;;;;;;;5047146;28;20435;-84
2022/05/31 15:39:10;;;;;;;3.10;1.10;;;;;;;;;;5055290;28;20445;-85
2022/05/31 15:41:38;;;;;;;2.58;0.98;;;;;;;;;;5044306;28;20399;-84
2022/05/31 15:44:04;;;;;;;3.20;1.13;;;;;;;;;;5045436;28;20418;-84